createdAt,value
2023-02-19T00:03:41.122Z,99556.45
2023-02-19T00:08:44.897Z,99557.23
2023-02-19T00:13:50.363Z,99561.92
2023-02-19T00:18:54.979Z,99558.02
2023-02-19T00:24:01.384Z,99560.69
2023-02-19T00:29:04.890Z,99565.02
2023-02-19T00:34:08.215Z,99566.13
2023-02-19T00:39:15.865Z,99562.20
2023-02-19T00:44:19.641Z,99562.22
2023-02-19T00:49:23.601Z,99562.93
2023-02-19T00:54:26.770Z,99562.45
2023-02-19T00:59:29.775Z,99569.98
2023-02-19T01:04:32.911Z,99582.61
2023-02-19T01:09:35.890Z,99586.91
2023-02-19T01:14:39.085Z,99590.72
2023-02-19T01:19:42.187Z,99586.27
2023-02-19T01:24:45.308Z,99588.50
2023-02-19T01:29:48.298Z,99584.36
2023-02-19T01:34:51.300Z,99585.48
2023-02-19T01:39:54.310Z,99580.09
2023-02-19T01:45:18.938Z,99583.04
2023-02-19T01:50:23.454Z,99576.77
2023-02-19T01:55:26.665Z,99569.73
2023-02-19T02:00:30.964Z,99575.07
2023-02-19T02:05:46.493Z,99579.83
2023-02-19T02:10:51.375Z,99575.73
2023-02-19T02:16:23.163Z,99571.85
2023-02-19T02:21:46.092Z,99569.11
2023-02-19T02:27:01.077Z,99563.95
2023-02-19T02:32:10.958Z,99563.92
2023-02-19T02:37:16.048Z,99571.09
2023-02-19T02:42:28.218Z,99576.40
2023-02-19T02:47:44.942Z,99582.10
2023-02-19T02:53:11.490Z,99582.58
2023-02-19T02:58:16.752Z,99576.98
2023-02-19T03:03:24.473Z,99575.24
2023-02-19T03:08:31.790Z,99574.84
2023-02-19T03:13:57.394Z,99573.23
2023-02-19T03:19:20.167Z,99572.81
2023-02-19T03:24:47.480Z,99563.98
2023-02-19T03:29:54.538Z,99561.23
2023-02-19T03:35:04.196Z,99563.89
2023-02-19T03:40:08.671Z,99563.86
2023-02-19T03:45:19.007Z,99563.98
2023-02-19T03:50:44.637Z,99564.98
2023-02-19T03:56:06.789Z,99560.67
2023-02-19T04:01:20.034Z,99559.73
2023-02-19T04:06:29.488Z,99557.26
2023-02-19T04:11:33.733Z,99556.61
2023-02-19T04:16:42.890Z,99554.15
2023-02-19T04:21:47.424Z,99550.96
2023-02-19T04:26:50.924Z,99551.77
2023-02-19T04:31:53.965Z,99552.41
2023-02-19T04:36:57.233Z,99545.82
2023-02-19T04:42:00.441Z,99544.86
2023-02-19T04:47:03.543Z,99544.61
2023-02-19T04:52:06.648Z,99546.22
2023-02-19T04:57:09.856Z,99540.02
2023-02-19T05:02:13.064Z,99536.38
2023-02-19T05:07:16.580Z,99533.17
2023-02-19T05:12:19.790Z,99531.34
2023-02-19T05:17:23.096Z,99532.10
2023-02-19T05:22:26.324Z,99540.10
2023-02-19T05:27:31.972Z,99535.19
2023-02-19T05:32:35.909Z,99530.95
2023-02-19T05:37:39.035Z,99529.98
2023-02-19T05:42:42.003Z,99538.05
2023-02-19T05:47:45.005Z,99542.81
2023-02-19T05:52:48.109Z,99544.15
2023-02-19T05:57:51.222Z,99546.66
2023-02-19T06:02:54.878Z,99550.59
2023-02-19T06:07:58.861Z,99552.95
2023-02-19T06:13:02.071Z,99555.55
2023-02-19T06:18:05.379Z,99561.04
2023-02-19T06:23:08.381Z,99565.09
2023-02-19T06:28:11.536Z,99571.29
2023-02-19T06:33:14.703Z,99576.14
2023-02-19T06:38:17.701Z,99577.80
2023-02-19T06:43:20.712Z,99586.48
2023-02-19T06:48:23.953Z,99596.09
2023-02-19T06:53:27.751Z,99597.00
2023-02-19T06:58:32.580Z,99600.50
2023-02-19T07:03:35.688Z,99608.16
2023-02-19T07:08:38.897Z,99608.14
2023-02-19T07:13:42.101Z,99613.64
2023-02-19T07:18:46.214Z,99615.75
2023-02-19T07:23:50.297Z,99622.52
2023-02-19T07:28:54.204Z,99628.83
2023-02-19T07:33:58.619Z,99629.11
2023-02-19T07:39:02.236Z,99636.86
2023-02-19T07:44:06.061Z,99645.98
2023-02-19T07:49:09.376Z,99647.23
2023-02-19T07:54:13.806Z,99644.84
2023-02-19T07:59:19.895Z,99648.30
2023-02-19T08:04:22.993Z,99650.24
2023-02-19T08:09:26.403Z,99659.11
2023-02-19T08:14:30.032Z,99663.84
2023-02-19T08:19:33.333Z,99676.33
2023-02-19T08:24:39.711Z,99679.49
2023-02-19T08:29:42.918Z,99682.89
2023-02-19T08:34:46.023Z,99683.99
2023-02-19T08:39:49.129Z,99685.14
2023-02-19T08:44:52.235Z,99695.15
2023-02-19T08:49:55.361Z,99703.98
2023-02-19T08:54:58.661Z,99704.20
2023-02-19T09:00:01.953Z,99712.52
2023-02-19T09:05:08.548Z,99715.56
2023-02-19T09:10:14.367Z,99723.11
2023-02-19T09:15:19.718Z,99729.98
2023-02-19T09:20:23.219Z,99729.30
2023-02-19T09:25:27.727Z,99730.12
2023-02-19T09:30:30.872Z,99734.02
2023-02-19T09:35:34.040Z,99736.04
2023-02-19T09:40:38.583Z,99740.38
2023-02-19T09:45:42.098Z,99745.64
2023-02-19T09:50:48.897Z,99747.79
2023-02-19T09:55:53.527Z,99754.38
2023-02-19T10:00:59.062Z,99754.23
2023-02-19T10:06:11.147Z,99757.05
2023-02-19T10:11:16.152Z,99765.23
2023-02-19T10:16:25.196Z,99768.33
2023-02-19T10:21:29.020Z,99776.92
2023-02-19T10:26:35.599Z,99782.84
2023-02-19T10:31:39.682Z,99783.87
2023-02-19T10:36:45.530Z,99783.84
2023-02-19T10:41:51.228Z,99785.95
2023-02-19T10:46:57.727Z,99786.22
2023-02-19T10:52:18.010Z,99785.58
2023-02-19T10:57:30.694Z,99792.05
2023-02-19T11:02:34.207Z,99791.89
2023-02-19T11:07:39.162Z,99790.34
2023-02-19T11:12:48.099Z,99796.44
2023-02-19T11:18:08.508Z,99795.04
2023-02-19T11:23:18.951Z,99799.66
2023-02-19T11:28:32.852Z,99808.51
2023-02-19T11:33:35.952Z,99813.58
2023-02-19T11:38:39.167Z,99817.08
2023-02-19T11:43:51.277Z,99824.23
2023-02-19T11:49:30.540Z,99831.11
2023-02-19T11:54:54.817Z,99834.30
2023-02-19T12:00:30.637Z,99838.32
2023-02-19T12:05:56.952Z,99837.73
2023-02-19T12:11:05.186Z,99843.02
2023-02-19T12:16:39.825Z,99841.98
2023-02-19T12:22:12.633Z,99847.21
2023-02-19T12:27:29.202Z,99857.33
2023-02-19T12:32:50.069Z,99859.20
2023-02-19T12:38:12.116Z,99863.26
2023-02-19T12:43:24.863Z,99870.78
2023-02-19T12:48:40.137Z,99869.88
2023-02-19T12:53:53.183Z,99871.92
2023-02-19T12:59:04.039Z,99877.50
2023-02-19T13:04:37.468Z,99880.68
2023-02-19T13:09:56.267Z,99887.08
2023-02-19T13:15:05.409Z,99893.66
2023-02-19T13:20:23.758Z,99902.41
2023-02-19T13:25:50.323Z,99898.95
2023-02-19T13:31:00.674Z,99908.36
2023-02-19T13:36:16.910Z,99908.92
2023-02-19T13:41:30.154Z,99906.83
2023-02-19T13:46:38.322Z,99905.72
2023-02-19T13:51:51.638Z,99911.38
2023-02-19T13:57:26.130Z,99917.47
2023-02-19T14:02:33.417Z,99925.67
2023-02-19T14:07:49.601Z,99929.83
2023-02-19T14:12:53.304Z,99941.39
2023-02-19T14:17:57.442Z,99949.64
2023-02-19T14:23:09.850Z,99953.50
2023-02-19T14:28:18.910Z,99954.87
2023-02-19T14:33:28.455Z,99955.09
2023-02-19T14:39:01.151Z,99963.03
2023-02-19T14:44:13.365Z,99968.95
2023-02-19T14:49:26.407Z,99980.02
2023-02-19T14:54:41.298Z,99982.48
2023-02-19T15:00:00.620Z,99991.98
2023-02-19T15:05:26.319Z,99996.50
2023-02-19T15:10:32.658Z,100002.08
2023-02-19T15:15:41.212Z,100001.89
2023-02-19T15:20:45.057Z,100007.48
2023-02-19T15:25:52.753Z,100009.77
2023-02-19T15:30:59.517Z,100020.73
2023-02-19T15:36:07.078Z,100033.02
2023-02-19T15:41:22.099Z,100038.33
2023-02-19T15:46:26.970Z,100055.80
2023-02-19T15:51:43.531Z,100067.64
2023-02-19T15:56:50.984Z,100071.06
2023-02-19T16:01:54.859Z,100078.83
2023-02-19T16:07:03.392Z,100085.60
2023-02-19T16:12:24.381Z,100090.26
2023-02-19T16:17:28.962Z,100090.23
2023-02-19T16:22:41.088Z,100100.25
2023-02-19T16:27:44.899Z,100116.58
2023-02-19T16:32:48.103Z,100127.53
2023-02-19T16:37:58.554Z,100129.27
2023-02-19T16:43:04.558Z,100132.79
2023-02-19T16:48:09.357Z,100133.60
2023-02-19T16:53:20.505Z,100129.98
2023-02-19T16:58:25.749Z,100145.55
2023-02-19T17:03:29.159Z,100155.20
2023-02-19T17:08:39.039Z,100160.02
2023-02-19T17:13:43.638Z,100167.64
2023-02-19T17:18:47.281Z,100180.49
2023-02-19T17:23:50.696Z,100187.52
2023-02-19T17:29:02.517Z,100184.83
2023-02-19T17:34:06.025Z,100187.04
2023-02-19T17:39:15.669Z,100182.64
2023-02-19T17:44:18.915Z,100183.41
2023-02-19T17:49:22.197Z,100186.79
2023-02-19T17:54:27.663Z,100189.16
2023-02-19T17:59:32.305Z,100186.20
2023-02-19T18:04:37.020Z,100193.73
2023-02-19T18:09:41.794Z,100201.29
2023-02-19T18:14:48.380Z,100208.45
2023-02-19T18:19:53.436Z,100213.37
2023-02-19T18:24:56.852Z,100216.39
2023-02-19T18:30:00.518Z,100216.77
2023-02-19T18:35:06.089Z,100216.27
2023-02-19T18:40:13.947Z,100214.40
2023-02-19T18:45:23.200Z,100215.48
2023-02-19T18:50:28.640Z,100221.83
2023-02-19T18:55:35.960Z,100227.78
2023-02-19T19:00:41.827Z,100235.86
2023-02-19T19:05:46.392Z,100237.90
2023-02-19T19:10:50.817Z,100238.48
2023-02-19T19:15:54.405Z,100230.55
2023-02-19T19:21:03.779Z,100227.63
2023-02-19T19:26:07.607Z,100222.70
2023-02-19T19:31:14.403Z,100215.63
2023-02-19T19:36:23.317Z,100219.20
2023-02-19T19:41:26.966Z,100220.43
2023-02-19T19:46:31.787Z,100226.88
2023-02-19T19:51:36.140Z,100213.83
2023-02-19T19:56:45.053Z,100206.34
2023-02-19T20:01:53.182Z,100206.45
2023-02-19T20:06:59.747Z,100217.34
2023-02-19T20:12:03.916Z,100219.93
2023-02-19T20:17:09.786Z,100225.56
2023-02-19T20:22:12.892Z,100234.23
2023-02-19T20:27:16.120Z,100237.45
2023-02-19T20:32:19.349Z,100242.95
2023-02-19T20:37:24.357Z,100239.40
2023-02-19T20:42:29.519Z,100244.59
2023-02-19T20:47:34.667Z,100249.39
2023-02-19T20:52:37.978Z,100244.98
2023-02-19T20:57:41.494Z,100243.49
2023-02-19T21:02:46.088Z,100241.85
2023-02-19T21:07:49.861Z,100236.83
2023-02-19T21:12:54.561Z,100232.42
2023-02-19T21:17:57.908Z,100238.92
2023-02-19T21:23:02.502Z,100238.89
2023-02-19T21:28:09.445Z,100237.77
2023-02-19T21:33:13.573Z,100240.13
2023-02-19T21:38:16.989Z,100240.53
2023-02-19T21:43:20.431Z,100240.48
2023-02-19T21:48:24.331Z,100238.69
2023-02-19T21:53:28.249Z,100226.80
2023-02-19T21:58:31.456Z,100220.48
2023-02-19T22:03:34.564Z,100221.23
2023-02-19T22:08:37.667Z,100221.36
2023-02-19T22:13:40.874Z,100222.20
2023-02-19T22:18:51.883Z,100220.81
2023-02-19T22:23:55.585Z,100219.23
2023-02-19T22:28:59.865Z,100222.38
2023-02-19T22:34:03.131Z,100218.01
2023-02-19T22:39:08.990Z,100211.86
2023-02-19T22:44:12.705Z,100214.31
2023-02-19T22:49:16.233Z,100213.14
2023-02-19T22:54:25.171Z,100208.10
2023-02-19T22:59:28.176Z,100211.59
2023-02-19T23:04:31.582Z,100204.33
2023-02-19T23:09:34.698Z,100203.11
2023-02-19T23:14:38.115Z,100191.95
2023-02-19T23:19:41.222Z,100194.06
2023-02-19T23:24:44.634Z,100184.60
2023-02-19T23:29:47.842Z,100180.33
2023-02-19T23:34:51.565Z,100179.17
2023-02-19T23:39:54.616Z,100184.52
2023-02-19T23:44:57.778Z,100185.45
2023-02-19T23:50:01.286Z,100181.20
2023-02-19T23:55:05.926Z,100182.44
